sensor_id;sensor_type;location;lat;lon;timestamp;P1;durP1;ratioP1;P2;durP2;ratioP2
69621;SDS011;56841;55.964;37.674;2023-07-29T00:00:20;6.43;;;2.72;;
69621;SDS011;56841;55.964;37.674;2023-07-29T00:02:46;5.05;;;2.45;;
69621;SDS011;56841;55.964;37.674;2023-07-29T00:05:11;4.47;;;2.38;;
69621;SDS011;56841;55.964;37.674;2023-07-29T00:07:37;4.25;;;2.55;;
69621;SDS011;56841;55.964;37.674;2023-07-29T00:10:03;5.45;;;2.50;;
69621;SDS011;56841;55.964;37.674;2023-07-29T00:12:30;7.60;;;2.70;;
69621;SDS011;56841;55.964;37.674;2023-07-29T00:14:56;5.78;;;2.60;;
69621;SDS011;56841;55.964;37.674;2023-07-29T00:17:21;5.10;;;2.72;;
69621;SDS011;56841;55.964;37.674;2023-07-29T00:19:47;5.00;;;2.58;;
69621;SDS011;56841;55.964;37.674;2023-07-29T00:22:13;4.88;;;2.60;;
69621;SDS011;56841;55.964;37.674;2023-07-29T00:24:39;6.07;;;2.70;;
69621;SDS011;56841;55.964;37.674;2023-07-29T00:27:06;4.07;;;2.22;;
69621;SDS011;56841;55.964;37.674;2023-07-29T00:29:32;4.32;;;2.88;;
69621;SDS011;56841;55.964;37.674;2023-07-29T00:31:58;5.80;;;2.83;;
69621;SDS011;56841;55.964;37.674;2023-07-29T00:34:24;4.88;;;2.80;;
69621;SDS011;56841;55.964;37.674;2023-07-29T00:36:50;6.18;;;3.10;;
69621;SDS011;56841;55.964;37.674;2023-07-29T00:39:16;4.82;;;2.83;;
69621;SDS011;56841;55.964;37.674;2023-07-29T00:41:41;7.40;;;3.22;;
69621;SDS011;56841;55.964;37.674;2023-07-29T00:44:07;5.90;;;3.03;;
69621;SDS011;56841;55.964;37.674;2023-07-29T00:46:34;4.70;;;3.05;;
69621;SDS011;56841;55.964;37.674;2023-07-29T00:49:01;7.18;;;2.80;;
69621;SDS011;56841;55.964;37.674;2023-07-29T00:51:27;5.00;;;2.88;;
69621;SDS011;56841;55.964;37.674;2023-07-29T00:53:53;5.18;;;2.67;;
69621;SDS011;56841;55.964;37.674;2023-07-29T00:56:18;6.20;;;2.72;;
69621;SDS011;56841;55.964;37.674;2023-07-29T00:58:44;5.00;;;2.88;;
69621;SDS011;56841;55.964;37.674;2023-07-29T01:01:11;4.75;;;2.65;;
69621;SDS011;56841;55.964;37.674;2023-07-29T01:03:37;4.70;;;2.78;;
69621;SDS011;56841;55.964;37.674;2023-07-29T01:06:07;6.50;;;2.47;;
69621;SDS011;56841;55.964;37.674;2023-07-29T01:11:33;4.88;;;2.53;;
69621;SDS011;56841;55.964;37.674;2023-07-29T01:14:36;4.18;;;2.42;;
69621;SDS011;56841;55.964;37.674;2023-07-29T01:16:55;5.75;;;2.53;;
69621;SDS011;56841;55.964;37.674;2023-07-29T01:22:13;5.63;;;2.85;;
69621;SDS011;56841;55.964;37.674;2023-07-29T01:24:39;4.38;;;2.60;;
69621;SDS011;56841;55.964;37.674;2023-07-29T01:27:05;6.75;;;2.78;;
69621;SDS011;56841;55.964;37.674;2023-07-29T01:29:31;7.13;;;2.67;;
69621;SDS011;56841;55.964;37.674;2023-07-29T01:31:58;5.05;;;2.70;;
69621;SDS011;56841;55.964;37.674;2023-07-29T01:34:33;4.72;;;2.53;;
69621;SDS011;56841;55.964;37.674;2023-07-29T01:37:14;4.95;;;2.85;;
69621;SDS011;56841;55.964;37.674;2023-07-29T01:39:46;4.47;;;2.78;;
69621;SDS011;56841;55.964;37.674;2023-07-29T01:42:14;7.95;;;2.97;;
69621;SDS011;56841;55.964;37.674;2023-07-29T01:44:41;7.18;;;3.03;;
69621;SDS011;56841;55.964;37.674;2023-07-29T01:47:08;5.00;;;3.33;;
69621;SDS011;56841;55.964;37.674;2023-07-29T01:49:34;5.80;;;3.40;;
69621;SDS011;56841;55.964;37.674;2023-07-29T01:51:59;10.18;;;3.40;;
69621;SDS011;56841;55.964;37.674;2023-07-29T01:54:25;5.28;;;2.75;;
69621;SDS011;56841;55.964;37.674;2023-07-29T01:56:51;7.20;;;2.85;;
69621;SDS011;56841;55.964;37.674;2023-07-29T01:59:17;4.90;;;2.90;;
69621;SDS011;56841;55.964;37.674;2023-07-29T02:01:43;6.18;;;2.63;;
69621;SDS011;56841;55.964;37.674;2023-07-29T02:04:09;5.80;;;2.90;;
69621;SDS011;56841;55.964;37.674;2023-07-29T02:06:34;4.55;;;2.67;;
69621;SDS011;56841;55.964;37.674;2023-07-29T02:09:00;7.10;;;2.85;;
69621;SDS011;56841;55.964;37.674;2023-07-29T02:11:26;6.07;;;3.08;;
69621;SDS011;56841;55.964;37.674;2023-07-29T02:13:54;5.68;;;2.80;;
69621;SDS011;56841;55.964;37.674;2023-07-29T02:16:21;6.07;;;2.95;;
69621;SDS011;56841;55.964;37.674;2023-07-29T02:18:48;7.18;;;2.85;;
69621;SDS011;56841;55.964;37.674;2023-07-29T02:21:15;8.52;;;3.08;;
69621;SDS011;56841;55.964;37.674;2023-07-29T02:23:41;5.78;;;3.13;;
69621;SDS011;56841;55.964;37.674;2023-07-29T02:26:07;6.40;;;3.10;;
69621;SDS011;56841;55.964;37.674;2023-07-29T02:28:33;5.72;;;3.25;;
69621;SDS011;56841;55.964;37.674;2023-07-29T02:31:09;5.13;;;3.13;;
69621;SDS011;56841;55.964;37.674;2023-07-29T02:33:36;6.82;;;3.33;;
69621;SDS011;56841;55.964;37.674;2023-07-29T02:36:01;7.30;;;3.28;;
69621;SDS011;56841;55.964;37.674;2023-07-29T02:38:27;5.63;;;3.10;;
69621;SDS011;56841;55.964;37.674;2023-07-29T02:40:53;10.35;;;3.75;;
69621;SDS011;56841;55.964;37.674;2023-07-29T02:43:19;6.63;;;3.20;;
69621;SDS011;56841;55.964;37.674;2023-07-29T02:45:44;7.07;;;3.30;;
69621;SDS011;56841;55.964;37.674;2023-07-29T02:48:10;9.20;;;3.65;;
69621;SDS011;56841;55.964;37.674;2023-07-29T02:50:36;7.15;;;3.58;;
69621;SDS011;56841;55.964;37.674;2023-07-29T02:53:02;6.40;;;3.45;;
69621;SDS011;56841;55.964;37.674;2023-07-29T02:55:28;5.45;;;3.17;;
69621;SDS011;56841;55.964;37.674;2023-07-29T02:57:54;9.88;;;3.55;;
69621;SDS011;56841;55.964;37.674;2023-07-29T03:00:19;5.68;;;3.20;;
69621;SDS011;56841;55.964;37.674;2023-07-29T03:02:45;6.20;;;3.30;;
69621;SDS011;56841;55.964;37.674;2023-07-29T03:05:11;8.40;;;3.58;;
69621;SDS011;56841;55.964;37.674;2023-07-29T03:07:38;6.00;;;3.33;;
69621;SDS011;56841;55.964;37.674;2023-07-29T03:10:04;6.47;;;3.45;;
69621;SDS011;56841;55.964;37.674;2023-07-29T03:12:30;5.28;;;2.95;;
69621;SDS011;56841;55.964;37.674;2023-07-29T03:14:56;5.97;;;2.88;;
69621;SDS011;56841;55.964;37.674;2023-07-29T03:17:22;7.25;;;3.55;;
69621;SDS011;56841;55.964;37.674;2023-07-29T03:19:48;5.22;;;3.00;;
69621;SDS011;56841;55.964;37.674;2023-07-29T03:22:13;5.53;;;3.20;;
69621;SDS011;56841;55.964;37.674;2023-07-29T03:24:39;5.78;;;3.13;;
69621;SDS011;56841;55.964;37.674;2023-07-29T03:27:05;6.07;;;3.13;;
69621;SDS011;56841;55.964;37.674;2023-07-29T03:29:30;6.57;;;3.33;;
69621;SDS011;56841;55.964;37.674;2023-07-29T03:31:56;4.85;;;2.83;;
69621;SDS011;56841;55.964;37.674;2023-07-29T03:34:22;5.97;;;3.03;;
69621;SDS011;56841;55.964;37.674;2023-07-29T03:36:48;4.93;;;2.90;;
69621;SDS011;56841;55.964;37.674;2023-07-29T03:39:16;4.78;;;2.80;;
69621;SDS011;56841;55.964;37.674;2023-07-29T03:41:42;5.72;;;2.90;;
69621;SDS011;56841;55.964;37.674;2023-07-29T03:44:07;5.70;;;3.15;;
69621;SDS011;56841;55.964;37.674;2023-07-29T03:46:33;5.40;;;3.08;;
69621;SDS011;56841;55.964;37.674;2023-07-29T03:48:59;5.57;;;3.17;;
69621;SDS011;56841;55.964;37.674;2023-07-29T03:51:25;5.10;;;3.15;;
69621;SDS011;56841;55.964;37.674;2023-07-29T03:53:51;6.95;;;3.05;;
69621;SDS011;56841;55.964;37.674;2023-07-29T03:56:17;5.63;;;3.17;;
69621;SDS011;56841;55.964;37.674;2023-07-29T03:58:42;5.28;;;3.40;;
69621;SDS011;56841;55.964;37.674;2023-07-29T04:01:09;4.57;;;3.20;;
69621;SDS011;56841;55.964;37.674;2023-07-29T04:03:35;5.72;;;3.13;;
69621;SDS011;56841;55.964;37.674;2023-07-29T04:06:01;5.05;;;2.90;;
69621;SDS011;56841;55.964;37.674;2023-07-29T04:08:27;7.22;;;2.92;;
69621;SDS011;56841;55.964;37.674;2023-07-29T04:10:53;5.95;;;2.95;;
69621;SDS011;56841;55.964;37.674;2023-07-29T04:13:19;4.85;;;2.83;;
69621;SDS011;56841;55.964;37.674;2023-07-29T04:15:44;5.70;;;3.00;;
69621;SDS011;56841;55.964;37.674;2023-07-29T04:18:10;5.53;;;3.00;;
69621;SDS011;56841;55.964;37.674;2023-07-29T04:20:36;4.57;;;2.75;;
69621;SDS011;56841;55.964;37.674;2023-07-29T04:23:02;4.80;;;2.90;;
69621;SDS011;56841;55.964;37.674;2023-07-29T04:25:28;6.18;;;3.20;;
69621;SDS011;56841;55.964;37.674;2023-07-29T04:27:54;4.75;;;2.60;;
69621;SDS011;56841;55.964;37.674;2023-07-29T04:30:20;4.63;;;2.70;;
69621;SDS011;56841;55.964;37.674;2023-07-29T04:32:46;5.85;;;2.53;;
69621;SDS011;56841;55.964;37.674;2023-07-29T04:35:13;6.50;;;3.00;;
69621;SDS011;56841;55.964;37.674;2023-07-29T04:37:40;5.55;;;2.72;;
69621;SDS011;56841;55.964;37.674;2023-07-29T04:40:06;4.50;;;2.88;;
69621;SDS011;56841;55.964;37.674;2023-07-29T04:42:32;4.50;;;2.63;;
69621;SDS011;56841;55.964;37.674;2023-07-29T04:45:01;5.13;;;2.70;;
69621;SDS011;56841;55.964;37.674;2023-07-29T04:47:27;5.97;;;2.80;;
69621;SDS011;56841;55.964;37.674;2023-07-29T04:49:53;4.45;;;2.42;;
69621;SDS011;56841;55.964;37.674;2023-07-29T04:52:19;4.47;;;2.40;;
69621;SDS011;56841;55.964;37.674;2023-07-29T04:54:46;6.25;;;2.60;;
69621;SDS011;56841;55.964;37.674;2023-07-29T04:57:12;4.68;;;2.67;;
69621;SDS011;56841;55.964;37.674;2023-07-29T04:59:37;5.38;;;2.72;;
69621;SDS011;56841;55.964;37.674;2023-07-29T05:02:03;4.53;;;2.88;;
69621;SDS011;56841;55.964;37.674;2023-07-29T05:04:29;4.25;;;2.47;;
69621;SDS011;56841;55.964;37.674;2023-07-29T05:06:55;5.82;;;2.78;;
69621;SDS011;56841;55.964;37.674;2023-07-29T05:09:21;3.60;;;2.47;;
69621;SDS011;56841;55.964;37.674;2023-07-29T05:11:48;4.35;;;2.25;;
69621;SDS011;56841;55.964;37.674;2023-07-29T05:14:15;4.18;;;2.28;;
69621;SDS011;56841;55.964;37.674;2023-07-29T05:16:42;6.68;;;2.72;;
69621;SDS011;56841;55.964;37.674;2023-07-29T05:19:09;4.45;;;2.60;;
69621;SDS011;56841;55.964;37.674;2023-07-29T05:21:34;4.22;;;2.20;;
69621;SDS011;56841;55.964;37.674;2023-07-29T05:24:01;3.70;;;2.30;;
69621;SDS011;56841;55.964;37.674;2023-07-29T05:26:26;5.32;;;2.45;;
69621;SDS011;56841;55.964;37.674;2023-07-29T05:28:52;4.47;;;2.40;;
69621;SDS011;56841;55.964;37.674;2023-07-29T05:31:18;4.30;;;2.50;;
69621;SDS011;56841;55.964;37.674;2023-07-29T05:33:44;4.32;;;2.63;;
69621;SDS011;56841;55.964;37.674;2023-07-29T05:36:10;4.68;;;2.33;;
69621;SDS011;56841;55.964;37.674;2023-07-29T05:38:36;4.10;;;2.25;;
69621;SDS011;56841;55.964;37.674;2023-07-29T05:41:01;4.60;;;2.42;;
69621;SDS011;56841;55.964;37.674;2023-07-29T05:43:27;3.45;;;2.28;;
69621;SDS011;56841;55.964;37.674;2023-07-29T05:45:53;4.70;;;2.42;;
69621;SDS011;56841;55.964;37.674;2023-07-29T05:48:20;4.00;;;2.40;;
69621;SDS011;56841;55.964;37.674;2023-07-29T05:50:46;4.15;;;2.22;;
69621;SDS011;56841;55.964;37.674;2023-07-29T05:53:12;3.58;;;2.40;;
69621;SDS011;56841;55.964;37.674;2023-07-29T05:55:37;3.40;;;2.13;;
69621;SDS011;56841;55.964;37.674;2023-07-29T05:58:03;5.28;;;1.95;;
69621;SDS011;56841;55.964;37.674;2023-07-29T06:00:29;4.63;;;2.20;;
69621;SDS011;56841;55.964;37.674;2023-07-29T06:02:54;4.00;;;2.22;;
69621;SDS011;56841;55.964;37.674;2023-07-29T06:05:21;4.40;;;2.00;;
69621;SDS011;56841;55.964;37.674;2023-07-29T06:07:47;3.55;;;2.20;;
69621;SDS011;56841;55.964;37.674;2023-07-29T06:10:15;3.90;;;2.42;;
69621;SDS011;56841;55.964;37.674;2023-07-29T06:12:46;4.10;;;2.30;;
69621;SDS011;56841;55.964;37.674;2023-07-29T06:15:12;4.60;;;2.33;;
69621;SDS011;56841;55.964;37.674;2023-07-29T06:17:41;3.72;;;2.25;;
69621;SDS011;56841;55.964;37.674;2023-07-29T06:20:07;3.00;;;2.10;;
69621;SDS011;56841;55.964;37.674;2023-07-29T06:22:33;3.35;;;2.10;;
69621;SDS011;56841;55.964;37.674;2023-07-29T06:24:59;4.00;;;2.35;;
69621;SDS011;56841;55.964;37.674;2023-07-29T06:27:25;4.75;;;2.50;;
69621;SDS011;56841;55.964;37.674;2023-07-29T06:29:51;4.45;;;2.35;;
69621;SDS011;56841;55.964;37.674;2023-07-29T06:32:17;6.28;;;3.83;;
69621;SDS011;56841;55.964;37.674;2023-07-29T06:34:42;4.40;;;2.67;;
69621;SDS011;56841;55.964;37.674;2023-07-29T06:37:08;4.00;;;2.22;;
69621;SDS011;56841;55.964;37.674;2023-07-29T06:39:34;4.50;;;2.47;;
69621;SDS011;56841;55.964;37.674;2023-07-29T06:42:00;4.15;;;2.45;;
69621;SDS011;56841;55.964;37.674;2023-07-29T06:44:25;3.92;;;2.40;;
69621;SDS011;56841;55.964;37.674;2023-07-29T06:46:51;4.75;;;2.25;;
69621;SDS011;56841;55.964;37.674;2023-07-29T06:49:17;4.15;;;2.78;;
69621;SDS011;56841;55.964;37.674;2023-07-29T06:51:43;4.43;;;2.45;;
69621;SDS011;56841;55.964;37.674;2023-07-29T06:54:08;4.07;;;2.90;;
69621;SDS011;56841;55.964;37.674;2023-07-29T06:56:34;6.00;;;2.65;;
69621;SDS011;56841;55.964;37.674;2023-07-29T06:59:00;4.22;;;2.53;;
69621;SDS011;56841;55.964;37.674;2023-07-29T07:01:25;3.88;;;2.67;;
69621;SDS011;56841;55.964;37.674;2023-07-29T07:03:51;4.18;;;2.90;;
69621;SDS011;56841;55.964;37.674;2023-07-29T07:06:22;4.82;;;3.00;;
69621;SDS011;56841;55.964;37.674;2023-07-29T07:08:50;4.20;;;2.60;;
69621;SDS011;56841;55.964;37.674;2023-07-29T07:11:18;4.80;;;2.90;;
69621;SDS011;56841;55.964;37.674;2023-07-29T07:13:44;5.57;;;2.97;;
69621;SDS011;56841;55.964;37.674;2023-07-29T07:16:10;5.82;;;2.83;;
69621;SDS011;56841;55.964;37.674;2023-07-29T07:18:35;4.85;;;2.83;;
69621;SDS011;56841;55.964;37.674;2023-07-29T07:21:01;5.20;;;2.83;;
69621;SDS011;56841;55.964;37.674;2023-07-29T07:23:27;4.30;;;2.67;;
69621;SDS011;56841;55.964;37.674;2023-07-29T07:25:53;4.93;;;2.85;;
69621;SDS011;56841;55.964;37.674;2023-07-29T07:28:18;5.88;;;3.20;;
69621;SDS011;56841;55.964;37.674;2023-07-29T07:30:44;4.85;;;2.92;;
69621;SDS011;56841;55.964;37.674;2023-07-29T07:33:10;4.57;;;2.92;;
69621;SDS011;56841;55.964;37.674;2023-07-29T07:35:36;5.47;;;2.92;;
69621;SDS011;56841;55.964;37.674;2023-07-29T07:38:01;5.28;;;2.78;;
69621;SDS011;56841;55.964;37.674;2023-07-29T07:40:32;4.22;;;2.78;;
69621;SDS011;56841;55.964;37.674;2023-07-29T07:42:58;5.28;;;3.10;;
69621;SDS011;56841;55.964;37.674;2023-07-29T07:45:24;3.97;;;2.65;;
69621;SDS011;56841;55.964;37.674;2023-07-29T07:47:51;4.78;;;2.72;;
69621;SDS011;56841;55.964;37.674;2023-07-29T07:50:18;5.25;;;3.30;;
69621;SDS011;56841;55.964;37.674;2023-07-29T07:52:44;4.65;;;3.05;;
69621;SDS011;56841;55.964;37.674;2023-07-29T07:55:09;5.93;;;3.15;;
69621;SDS011;56841;55.964;37.674;2023-07-29T07:57:35;5.82;;;2.85;;
69621;SDS011;56841;55.964;37.674;2023-07-29T08:00:01;4.93;;;2.83;;
69621;SDS011;56841;55.964;37.674;2023-07-29T08:02:30;4.22;;;2.80;;
69621;SDS011;56841;55.964;37.674;2023-07-29T08:04:56;4.40;;;2.80;;
69621;SDS011;56841;55.964;37.674;2023-07-29T08:07:21;5.05;;;3.13;;
69621;SDS011;56841;55.964;37.674;2023-07-29T08:09:47;5.32;;;3.10;;
69621;SDS011;56841;55.964;37.674;2023-07-29T08:12:13;4.40;;;3.10;;
69621;SDS011;56841;55.964;37.674;2023-07-29T08:14:39;6.25;;;3.42;;
69621;SDS011;56841;55.964;37.674;2023-07-29T08:17:04;3.97;;;2.80;;
69621;SDS011;56841;55.964;37.674;2023-07-29T08:19:32;4.88;;;3.05;;
69621;SDS011;56841;55.964;37.674;2023-07-29T08:22:02;5.93;;;3.22;;
69621;SDS011;56841;55.964;37.674;2023-07-29T08:24:28;6.05;;;3.00;;
69621;SDS011;56841;55.964;37.674;2023-07-29T08:26:54;5.60;;;3.20;;
69621;SDS011;56841;55.964;37.674;2023-07-29T08:29:19;5.45;;;3.35;;
69621;SDS011;56841;55.964;37.674;2023-07-29T08:31:45;7.20;;;3.40;;
69621;SDS011;56841;55.964;37.674;2023-07-29T08:34:10;5.75;;;3.45;;
69621;SDS011;56841;55.964;37.674;2023-07-29T08:36:36;6.55;;;3.58;;
69621;SDS011;56841;55.964;37.674;2023-07-29T08:39:02;4.90;;;2.90;;
69621;SDS011;56841;55.964;37.674;2023-07-29T08:41:29;6.00;;;3.42;;
69621;SDS011;56841;55.964;37.674;2023-07-29T08:44:02;6.65;;;3.65;;
69621;SDS011;56841;55.964;37.674;2023-07-29T08:46:29;5.35;;;3.53;;
69621;SDS011;56841;55.964;37.674;2023-07-29T08:48:55;5.45;;;3.63;;
69621;SDS011;56841;55.964;37.674;2023-07-29T08:51:22;4.88;;;3.33;;
69621;SDS011;56841;55.964;37.674;2023-07-29T08:53:48;5.95;;;3.50;;
69621;SDS011;56841;55.964;37.674;2023-07-29T08:56:15;5.95;;;3.22;;
69621;SDS011;56841;55.964;37.674;2023-07-29T08:58:44;6.15;;;3.67;;
69621;SDS011;56841;55.964;37.674;2023-07-29T09:01:10;5.07;;;3.33;;
69621;SDS011;56841;55.964;37.674;2023-07-29T09:03:37;5.57;;;3.65;;
69621;SDS011;56841;55.964;37.674;2023-07-29T09:06:03;8.38;;;4.20;;
69621;SDS011;56841;55.964;37.674;2023-07-29T09:08:29;7.28;;;3.78;;
69621;SDS011;56841;55.964;37.674;2023-07-29T09:10:55;6.00;;;3.53;;
69621;SDS011;56841;55.964;37.674;2023-07-29T09:13:21;6.93;;;3.53;;
69621;SDS011;56841;55.964;37.674;2023-07-29T09:15:47;6.35;;;3.65;;
69621;SDS011;56841;55.964;37.674;2023-07-29T09:18:17;6.00;;;3.45;;
69621;SDS011;56841;55.964;37.674;2023-07-29T09:20:48;6.82;;;4.00;;
69621;SDS011;56841;55.964;37.674;2023-07-29T09:23:15;5.57;;;3.13;;
69621;SDS011;56841;55.964;37.674;2023-07-29T09:25:41;5.40;;;3.15;;
69621;SDS011;56841;55.964;37.674;2023-07-29T09:28:08;5.78;;;3.45;;
69621;SDS011;56841;55.964;37.674;2023-07-29T09:30:41;5.40;;;3.50;;
69621;SDS011;56841;55.964;37.674;2023-07-29T09:33:08;6.68;;;3.03;;
69621;SDS011;56841;55.964;37.674;2023-07-29T09:35:35;5.35;;;3.17;;
69621;SDS011;56841;55.964;37.674;2023-07-29T09:38:02;5.22;;;2.95;;
69621;SDS011;56841;55.964;37.674;2023-07-29T09:40:38;5.13;;;3.08;;
69621;SDS011;56841;55.964;37.674;2023-07-29T09:43:10;4.85;;;2.90;;
69621;SDS011;56841;55.964;37.674;2023-07-29T09:45:36;5.50;;;3.08;;
69621;SDS011;56841;55.964;37.674;2023-07-29T09:48:03;5.75;;;3.42;;
69621;SDS011;56841;55.964;37.674;2023-07-29T09:50:35;5.50;;;3.33;;
69621;SDS011;56841;55.964;37.674;2023-07-29T09:53:02;4.68;;;3.15;;
69621;SDS011;56841;55.964;37.674;2023-07-29T09:55:28;4.75;;;2.53;;
69621;SDS011;56841;55.964;37.674;2023-07-29T09:57:58;4.55;;;2.70;;
69621;SDS011;56841;55.964;37.674;2023-07-29T10:00:28;4.65;;;2.78;;
69621;SDS011;56841;55.964;37.674;2023-07-29T10:02:54;5.55;;;2.72;;
69621;SDS011;56841;55.964;37.674;2023-07-29T10:05:22;5.63;;;2.95;;
69621;SDS011;56841;55.964;37.674;2023-07-29T10:07:51;5.60;;;3.00;;
69621;SDS011;56841;55.964;37.674;2023-07-29T10:10:17;4.30;;;2.67;;
69621;SDS011;56841;55.964;37.674;2023-07-29T10:12:43;4.38;;;2.70;;
69621;SDS011;56841;55.964;37.674;2023-07-29T10:15:09;4.10;;;2.55;;
69621;SDS011;56841;55.964;37.674;2023-07-29T10:17:36;4.68;;;2.70;;
69621;SDS011;56841;55.964;37.674;2023-07-29T10:20:04;4.50;;;2.60;;
69621;SDS011;56841;55.964;37.674;2023-07-29T10:22:38;5.70;;;3.13;;
69621;SDS011;56841;55.964;37.674;2023-07-29T10:25:05;4.55;;;3.03;;
69621;SDS011;56841;55.964;37.674;2023-07-29T10:27:43;4.60;;;3.20;;
69621;SDS011;56841;55.964;37.674;2023-07-29T10:30:14;4.30;;;2.42;;
69621;SDS011;56841;55.964;37.674;2023-07-29T10:32:41;4.13;;;2.50;;
69621;SDS011;56841;55.964;37.674;2023-07-29T10:35:12;4.90;;;2.55;;
69621;SDS011;56841;55.964;37.674;2023-07-29T10:37:39;5.97;;;2.70;;
69621;SDS011;56841;55.964;37.674;2023-07-29T10:40:08;5.07;;;2.72;;
69621;SDS011;56841;55.964;37.674;2023-07-29T10:42:36;4.10;;;2.75;;
69621;SDS011;56841;55.964;37.674;2023-07-29T10:45:18;5.63;;;2.85;;
69621;SDS011;56841;55.964;37.674;2023-07-29T10:47:46;5.28;;;2.80;;
69621;SDS011;56841;55.964;37.674;2023-07-29T10:50:19;5.95;;;3.55;;
69621;SDS011;56841;55.964;37.674;2023-07-29T10:52:50;6.13;;;3.50;;
69621;SDS011;56841;55.964;37.674;2023-07-29T10:55:32;6.30;;;3.30;;
69621;SDS011;56841;55.964;37.674;2023-07-29T10:58:06;5.13;;;3.33;;
69621;SDS011;56841;55.964;37.674;2023-07-29T11:00:33;5.45;;;3.08;;
69621;SDS011;56841;55.964;37.674;2023-07-29T11:03:00;5.72;;;3.30;;
69621;SDS011;56841;55.964;37.674;2023-07-29T11:08:29;5.63;;;3.30;;
69621;SDS011;56841;55.964;37.674;2023-07-29T11:11:03;6.85;;;3.25;;
69621;SDS011;56841;55.964;37.674;2023-07-29T11:13:31;7.10;;;3.88;;
69621;SDS011;56841;55.964;37.674;2023-07-29T11:15:58;6.55;;;3.78;;
69621;SDS011;56841;55.964;37.674;2023-07-29T11:18:29;5.97;;;3.58;;
69621;SDS011;56841;55.964;37.674;2023-07-29T11:20:59;6.07;;;3.47;;
69621;SDS011;56841;55.964;37.674;2023-07-29T11:23:29;6.75;;;3.88;;
69621;SDS011;56841;55.964;37.674;2023-07-29T11:25:57;6.43;;;3.75;;
69621;SDS011;56841;55.964;37.674;2023-07-29T11:28:24;6.40;;;3.70;;
69621;SDS011;56841;55.964;37.674;2023-07-29T11:30:50;7.65;;;4.63;;
69621;SDS011;56841;55.964;37.674;2023-07-29T11:33:17;7.15;;;4.57;;
69621;SDS011;56841;55.964;37.674;2023-07-29T11:35:45;6.22;;;3.80;;
69621;SDS011;56841;55.964;37.674;2023-07-29T11:38:14;6.25;;;3.53;;
69621;SDS011;56841;55.964;37.674;2023-07-29T11:40:53;8.07;;;4.00;;
69621;SDS011;56841;55.964;37.674;2023-07-29T11:43:20;7.15;;;4.18;;
69621;SDS011;56841;55.964;37.674;2023-07-29T11:45:45;7.07;;;4.18;;
69621;SDS011;56841;55.964;37.674;2023-07-29T11:48:11;7.45;;;4.57;;
69621;SDS011;56841;55.964;37.674;2023-07-29T11:50:37;7.97;;;3.50;;
69621;SDS011;56841;55.964;37.674;2023-07-29T11:53:03;6.18;;;4.07;;
69621;SDS011;56841;55.964;37.674;2023-07-29T11:55:31;6.72;;;3.95;;
69621;SDS011;56841;55.964;37.674;2023-07-29T11:57:59;6.75;;;3.65;;
69621;SDS011;56841;55.964;37.674;2023-07-29T12:00:27;8.18;;;4.13;;
69621;SDS011;56841;55.964;37.674;2023-07-29T12:02:53;7.50;;;4.30;;
69621;SDS011;56841;55.964;37.674;2023-07-29T12:05:20;6.72;;;3.53;;
69621;SDS011;56841;55.964;37.674;2023-07-29T12:07:47;6.45;;;4.07;;
69621;SDS011;56841;55.964;37.674;2023-07-29T12:10:13;6.68;;;4.20;;
69621;SDS011;56841;55.964;37.674;2023-07-29T12:12:49;5.50;;;3.42;;
69621;SDS011;56841;55.964;37.674;2023-07-29T12:15:26;7.43;;;4.13;;
69621;SDS011;56841;55.964;37.674;2023-07-29T12:17:54;6.30;;;3.58;;
69621;SDS011;56841;55.964;37.674;2023-07-29T12:20:23;6.70;;;3.90;;
69621;SDS011;56841;55.964;37.674;2023-07-29T12:22:56;7.60;;;4.30;;
69621;SDS011;56841;55.964;37.674;2023-07-29T12:25:23;7.05;;;4.13;;
69621;SDS011;56841;55.964;37.674;2023-07-29T12:27:49;8.65;;;4.55;;
69621;SDS011;56841;55.964;37.674;2023-07-29T12:30:15;9.65;;;4.80;;
69621;SDS011;56841;55.964;37.674;2023-07-29T12:32:43;10.70;;;5.63;;
69621;SDS011;56841;55.964;37.674;2023-07-29T12:35:12;11.90;;;5.28;;
69621;SDS011;56841;55.964;37.674;2023-07-29T12:37:38;10.30;;;5.40;;
69621;SDS011;56841;55.964;37.674;2023-07-29T12:40:07;9.50;;;5.15;;
69621;SDS011;56841;55.964;37.674;2023-07-29T12:42:47;14.85;;;6.57;;
69621;SDS011;56841;55.964;37.674;2023-07-29T12:45:15;11.52;;;5.88;;
69621;SDS011;56841;55.964;37.674;2023-07-29T12:47:41;11.02;;;5.68;;
69621;SDS011;56841;55.964;37.674;2023-07-29T12:50:07;11.38;;;5.50;;
69621;SDS011;56841;55.964;37.674;2023-07-29T12:52:33;10.85;;;5.90;;
69621;SDS011;56841;55.964;37.674;2023-07-29T12:54:58;11.02;;;5.50;;
69621;SDS011;56841;55.964;37.674;2023-07-29T12:57:24;6.63;;;3.63;;
69621;SDS011;56841;55.964;37.674;2023-07-29T12:59:50;6.43;;;3.67;;
69621;SDS011;56841;55.964;37.674;2023-07-29T13:02:16;5.88;;;3.40;;
69621;SDS011;56841;55.964;37.674;2023-07-29T13:04:41;6.38;;;3.30;;
69621;SDS011;56841;55.964;37.674;2023-07-29T13:07:07;9.30;;;4.72;;
69621;SDS011;56841;55.964;37.674;2023-07-29T13:09:32;6.88;;;3.95;;
69621;SDS011;56841;55.964;37.674;2023-07-29T13:11:58;9.43;;;5.50;;
69621;SDS011;56841;55.964;37.674;2023-07-29T13:14:24;12.43;;;5.93;;
69621;SDS011;56841;55.964;37.674;2023-07-29T13:16:51;10.63;;;5.57;;
69621;SDS011;56841;55.964;37.674;2023-07-29T13:19:18;8.20;;;4.75;;
69621;SDS011;56841;55.964;37.674;2023-07-29T13:21:44;12.40;;;6.20;;
69621;SDS011;56841;55.964;37.674;2023-07-29T13:24:09;12.48;;;6.72;;
69621;SDS011;56841;55.964;37.674;2023-07-29T13:26:35;11.20;;;4.78;;
69621;SDS011;56841;55.964;37.674;2023-07-29T13:29:01;8.95;;;4.50;;
69621;SDS011;56841;55.964;37.674;2023-07-29T13:31:27;8.80;;;4.00;;
69621;SDS011;56841;55.964;37.674;2023-07-29T13:33:52;6.50;;;3.28;;
69621;SDS011;56841;55.964;37.674;2023-07-29T13:36:18;5.93;;;3.20;;
69621;SDS011;56841;55.964;37.674;2023-07-29T13:38:44;5.32;;;2.90;;
69621;SDS011;56841;55.964;37.674;2023-07-29T13:41:09;7.22;;;3.22;;
69621;SDS011;56841;55.964;37.674;2023-07-29T13:43:35;8.05;;;4.30;;
69621;SDS011;56841;55.964;37.674;2023-07-29T13:46:01;8.82;;;4.60;;
69621;SDS011;56841;55.964;37.674;2023-07-29T13:48:26;7.72;;;3.75;;
69621;SDS011;56841;55.964;37.674;2023-07-29T13:50:52;6.53;;;3.67;;
69621;SDS011;56841;55.964;37.674;2023-07-29T13:53:18;7.25;;;3.45;;
69621;SDS011;56841;55.964;37.674;2023-07-29T13:55:43;8.13;;;4.20;;
69621;SDS011;56841;55.964;37.674;2023-07-29T13:58:09;7.80;;;3.20;;
69621;SDS011;56841;55.964;37.674;2023-07-29T14:00:35;8.85;;;3.65;;
69621;SDS011;56841;55.964;37.674;2023-07-29T14:03:00;7.57;;;4.22;;
69621;SDS011;56841;55.964;37.674;2023-07-29T14:05:26;9.77;;;5.22;;
69621;SDS011;56841;55.964;37.674;2023-07-29T14:07:52;8.00;;;4.97;;
69621;SDS011;56841;55.964;37.674;2023-07-29T14:10:18;8.32;;;4.10;;
69621;SDS011;56841;55.964;37.674;2023-07-29T14:12:45;8.65;;;5.03;;
69621;SDS011;56841;55.964;37.674;2023-07-29T14:15:11;11.63;;;7.28;;
69621;SDS011;56841;55.964;37.674;2023-07-29T14:17:37;11.70;;;6.15;;
69621;SDS011;56841;55.964;37.674;2023-07-29T14:20:03;11.18;;;5.93;;
69621;SDS011;56841;55.964;37.674;2023-07-29T14:22:31;15.95;;;8.30;;
69621;SDS011;56841;55.964;37.674;2023-07-29T14:24:57;10.23;;;5.70;;
69621;SDS011;56841;55.964;37.674;2023-07-29T14:27:23;7.10;;;4.38;;
69621;SDS011;56841;55.964;37.674;2023-07-29T14:29:49;8.63;;;4.05;;
69621;SDS011;56841;55.964;37.674;2023-07-29T14:32:14;6.68;;;3.75;;
69621;SDS011;56841;55.964;37.674;2023-07-29T14:34:40;7.15;;;4.22;;
69621;SDS011;56841;55.964;37.674;2023-07-29T14:37:06;9.65;;;4.80;;
69621;SDS011;56841;55.964;37.674;2023-07-29T14:39:31;7.53;;;4.53;;